KDMN

Deming Municipal Airport

Deming, New Mexico, USA
METAR KDMN 191453Z AUTO VRB04KT 10SM CLR 26/14 A3010 RMK AO2 SLP104 T02610144 51011
Observed Flight Rules
Aug-19 @ 14:53 UTC (44 minutes ago) Visual Flight Rules
Wind Visibility Clouds
Variable at 4 knots 10 miles
  • Clear skies
Temperatures Readings
Current 26°C / 79°F
Dewpoint 14°C / 57°F
Humidity 48%
Altimeter 30.1" Hg
Pressure 1010.4 hPa
Elevation 1311
METAR KDMN 191453Z AUTO VRB04KT 10SM CLR 26/14 A3010 RMK AO2 SLP104 T02610144 51011
Observed Flight Rules
Aug-19 @ 14:53 UTC
(44 minutes ago)
VFR
Wind Visibility
Variable at 4 knots 10 miles
Clouds
  • Clear skies
Temperature Dewpoint
26°C / 79°F 14°C / 57°F
Humidity Altimeter Pressure
48% 30.1" Hg 1010.4 hPa